createdAt,value
2018-07-26T00:01:11.423Z,93.10
2018-07-26T00:03:40.045Z,92.03
2018-07-26T00:06:08.752Z,92.21
2018-07-26T00:08:37.374Z,92.37
2018-07-26T00:11:06.053Z,92.13
2018-07-26T00:13:35.493Z,92.32
2018-07-26T00:16:04.172Z,92.55
2018-07-26T00:18:32.794Z,92.12
2018-07-26T00:21:01.476Z,92.58
2018-07-26T00:23:30.129Z,93.10
2018-07-26T00:25:58.739Z,92.96
2018-07-26T00:28:27.399Z,92.34
2018-07-26T00:30:56.915Z,92.54
2018-07-26T00:33:25.566Z,93.08
2018-07-26T00:35:54.188Z,93.10
2018-07-26T00:38:22.814Z,92.90
2018-07-26T00:40:51.422Z,93.69
2018-07-26T00:43:20.108Z,93.47
2018-07-26T00:45:48.746Z,94.37
2018-07-26T00:48:17.435Z,94.19
2018-07-26T00:50:46.126Z,94.16
2018-07-26T00:53:14.816Z,94.40
2018-07-26T00:55:43.436Z,94.35
2018-07-26T00:58:12.044Z,94.47
2018-07-26T01:00:40.665Z,94.18
2018-07-26T01:03:09.315Z,94.53
2018-07-26T01:05:37.939Z,94.26
2018-07-26T01:08:06.607Z,94.83
2018-07-26T01:10:35.474Z,94.10
2018-07-26T01:13:04.168Z,94.19
2018-07-26T01:15:32.802Z,93.96
2018-07-26T01:18:01.467Z,94.64
2018-07-26T01:20:30.164Z,93.94
2018-07-26T01:22:58.854Z,93.94
2018-07-26T01:25:27.495Z,94.18
2018-07-26T01:27:56.423Z,93.86
2018-07-26T01:30:25.526Z,94.30
2018-07-26T01:32:54.503Z,94.38
2018-07-26T01:35:23.148Z,93.68
2018-07-26T01:37:51.781Z,94.35
2018-07-26T01:40:20.411Z,93.58
2018-07-26T01:43:00.229Z,93.65
2018-07-26T01:45:28.897Z,93.87
2018-07-26T01:47:57.566Z,92.93
2018-07-26T01:50:26.191Z,92.88
2018-07-26T01:52:54.854Z,93.18
2018-07-26T01:55:23.896Z,93.65
2018-07-26T01:57:52.499Z,93.15
2018-07-26T02:00:21.155Z,93.58
2018-07-26T02:02:49.777Z,93.72
2018-07-26T02:05:18.455Z,93.44
2018-07-26T02:07:47.147Z,94.21
2018-07-26T02:10:15.896Z,94.48
2018-07-26T02:12:44.562Z,94.72
2018-07-26T02:15:13.283Z,95.05
2018-07-26T02:17:42.010Z,95.23
2018-07-26T02:20:10.709Z,94.48
2018-07-26T02:22:39.522Z,94.64
2018-07-26T02:25:08.446Z,94.54
2018-07-26T02:27:37.088Z,95.84
2018-07-26T02:30:07.612Z,96.69
2018-07-26T02:32:36.538Z,97.64
2018-07-26T02:35:05.598Z,98.05
2018-07-26T02:37:34.222Z,97.86
2018-07-26T02:40:02.819Z,99.11
2018-07-26T02:42:31.475Z,98.75
2018-07-26T02:45:00.441Z,99.18
2018-07-26T02:47:29.089Z,99.81
2018-07-26T02:49:58.048Z,100.00
2018-07-26T02:52:26.711Z,100.00
2018-07-26T02:54:55.340Z,100.00
2018-07-26T02:57:23.947Z,100.00
2018-07-26T02:59:52.594Z,100.00
2018-07-26T03:02:21.234Z,100.00
2018-07-26T03:04:49.865Z,100.00
2018-07-26T03:07:18.874Z,100.00
2018-07-26T03:09:47.515Z,100.00
2018-07-26T03:12:16.173Z,100.00
2018-07-26T03:14:45.539Z,100.00
2018-07-26T03:17:15.472Z,100.00
2018-07-26T03:19:45.034Z,100.00
2018-07-26T03:22:13.809Z,100.00
2018-07-26T03:24:42.480Z,100.00
2018-07-26T03:27:11.167Z,100.00
2018-07-26T03:29:39.920Z,100.00
2018-07-26T03:32:09.110Z,100.00
2018-07-26T03:34:38.108Z,100.00
2018-07-26T03:37:06.827Z,100.00
2018-07-26T03:39:35.551Z,100.00
2018-07-26T03:42:04.213Z,100.00
2018-07-26T03:44:32.875Z,100.00
2018-07-26T03:47:01.649Z,100.00
2018-07-26T03:49:30.349Z,100.00
2018-07-26T03:51:59.584Z,100.00
2018-07-26T03:54:28.171Z,100.00
2018-07-26T03:56:56.917Z,100.00
2018-07-26T03:59:25.683Z,99.86
2018-07-26T04:01:54.645Z,99.83
2018-07-26T04:04:23.550Z,99.07
2018-07-26T04:06:52.203Z,98.16
2018-07-26T04:09:21.137Z,98.19
2018-07-26T04:11:49.799Z,97.30
2018-07-26T04:14:18.444Z,96.86
2018-07-26T04:16:47.095Z,96.71
2018-07-26T04:19:15.782Z,96.70
2018-07-26T04:21:44.422Z,96.75
2018-07-26T04:24:13.153Z,97.01
2018-07-26T04:26:42.116Z,97.40
2018-07-26T04:29:10.814Z,97.39
2018-07-26T04:31:39.487Z,97.05
2018-07-26T04:34:08.164Z,96.28
2018-07-26T04:36:36.837Z,96.74
2018-07-26T04:39:08.499Z,96.58
2018-07-26T04:41:37.733Z,96.31
2018-07-26T04:44:06.378Z,95.78
2018-07-26T04:46:35.051Z,95.53
2018-07-26T04:49:03.671Z,94.68
2018-07-26T04:51:32.575Z,93.54
2018-07-26T04:54:01.280Z,93.17
2018-07-26T04:56:29.933Z,93.07
2018-07-26T04:58:58.847Z,92.76
2018-07-26T05:01:27.474Z,91.96
2018-07-26T05:03:56.678Z,90.98
2018-07-26T05:06:26.542Z,90.26
2018-07-26T05:08:55.259Z,89.76
2018-07-26T05:11:23.924Z,89.76
2018-07-26T05:13:52.587Z,89.94
2018-07-26T05:16:21.229Z,89.17
2018-07-26T05:18:49.884Z,87.53
2018-07-26T05:21:18.574Z,86.06
2018-07-26T05:23:47.259Z,85.39
2018-07-26T05:26:15.964Z,84.65
2018-07-26T05:28:44.571Z,83.50
2018-07-26T05:31:13.342Z,81.47
2018-07-26T05:33:41.982Z,78.17
2018-07-26T05:36:10.779Z,74.05
2018-07-26T05:38:39.460Z,72.91
2018-07-26T05:41:08.214Z,71.61
2018-07-26T05:43:37.540Z,69.30
2018-07-26T05:46:06.261Z,68.93
2018-07-26T05:48:34.970Z,69.45
2018-07-26T05:51:04.175Z,70.97
2018-07-26T05:53:32.831Z,72.62
2018-07-26T05:56:01.487Z,73.05
2018-07-26T05:58:30.159Z,72.69
2018-07-26T06:00:58.835Z,73.97
2018-07-26T06:03:27.506Z,73.85
2018-07-26T06:05:56.479Z,72.76
2018-07-26T06:08:25.148Z,73.37
2018-07-26T06:10:53.856Z,72.48
2018-07-26T06:13:22.532Z,73.21
2018-07-26T06:15:51.191Z,73.47
2018-07-26T06:18:19.783Z,73.10
2018-07-26T06:20:48.512Z,71.33
2018-07-26T06:23:17.471Z,70.45
2018-07-26T06:25:46.115Z,70.91
2018-07-26T06:28:14.835Z,71.01
2018-07-26T06:30:43.556Z,71.23
2018-07-26T06:33:12.196Z,65.83
2018-07-26T06:35:40.833Z,64.66
2018-07-26T06:38:10.499Z,61.73
2018-07-26T06:40:39.194Z,59.85
2018-07-26T06:43:08.118Z,59.52
2018-07-26T06:45:37.228Z,59.51
2018-07-26T06:48:06.884Z,57.59
2018-07-26T06:50:35.578Z,58.24
2018-07-26T06:53:04.699Z,56.39
2018-07-26T06:55:33.817Z,55.16
2018-07-26T06:58:02.507Z,52.51
2018-07-26T07:00:31.234Z,52.86
2018-07-26T07:03:00.232Z,54.14
2018-07-26T07:05:28.975Z,53.31
2018-07-26T07:07:57.859Z,51.25
2018-07-26T07:10:26.497Z,49.75
2018-07-26T07:12:55.331Z,51.00
2018-07-26T07:15:24.220Z,53.07
2018-07-26T07:17:52.921Z,54.08
2018-07-26T07:20:21.591Z,56.69
2018-07-26T07:22:50.337Z,56.48
2018-07-26T07:25:20.077Z,56.62
2018-07-26T07:27:48.893Z,54.06
2018-07-26T07:30:17.899Z,52.46
2018-07-26T07:32:46.567Z,53.29
2018-07-26T07:35:15.243Z,54.37
2018-07-26T07:37:43.972Z,55.44
2018-07-26T07:40:13.288Z,55.93
2018-07-26T07:42:41.973Z,56.72
2018-07-26T07:45:10.637Z,53.99
2018-07-26T07:47:39.662Z,51.74
2018-07-26T07:50:08.343Z,49.79
2018-07-26T07:52:37.070Z,51.81
2018-07-26T07:55:06.220Z,53.16
2018-07-26T07:57:34.867Z,52.50
2018-07-26T08:00:04.623Z,51.83
2018-07-26T08:02:33.653Z,49.53
2018-07-26T08:05:02.348Z,51.45
2018-07-26T08:07:31.005Z,50.48
2018-07-26T08:09:59.697Z,47.72
2018-07-26T08:12:28.442Z,44.49
2018-07-26T08:14:57.060Z,44.34
2018-07-26T08:17:26.017Z,45.94
2018-07-26T08:19:55.156Z,47.92
2018-07-26T08:22:24.120Z,45.99
2018-07-26T08:24:53.536Z,45.33
2018-07-26T08:27:22.958Z,46.25
2018-07-26T08:29:52.306Z,46.48
2018-07-26T08:32:20.979Z,45.80
2018-07-26T08:34:50.056Z,45.45
2018-07-26T08:37:18.675Z,45.95
2018-07-26T08:39:47.334Z,44.91
2018-07-26T08:42:16.691Z,46.05
2018-07-26T08:44:45.369Z,48.79
2018-07-26T08:47:14.134Z,50.23
2018-07-26T08:49:42.832Z,52.02
2018-07-26T08:52:11.908Z,48.48
2018-07-26T08:54:41.058Z,45.74
2018-07-26T08:57:09.963Z,46.26
2018-07-26T08:59:38.856Z,46.10
2018-07-26T09:02:08.008Z,44.45
2018-07-26T09:04:36.958Z,45.02
2018-07-26T09:07:05.854Z,45.83
2018-07-26T09:09:34.797Z,48.57
2018-07-26T09:12:03.452Z,49.08
2018-07-26T09:14:32.455Z,50.98
2018-07-26T09:17:01.332Z,48.13
2018-07-26T09:19:30.281Z,46.33
2018-07-26T09:21:59.667Z,43.68
2018-07-26T09:24:28.344Z,42.50
2018-07-26T09:26:57.019Z,46.26
2018-07-26T09:29:25.730Z,49.18
2018-07-26T09:31:54.344Z,50.06
2018-07-26T09:34:23.072Z,48.69
2018-07-26T09:36:51.853Z,49.44
2018-07-26T09:39:20.484Z,50.25
2018-07-26T09:41:49.193Z,51.28
2018-07-26T09:44:18.584Z,49.90
2018-07-26T09:46:47.243Z,46.21
2018-07-26T09:49:15.872Z,44.00
2018-07-26T09:51:44.921Z,42.85
2018-07-26T09:54:13.631Z,42.78
2018-07-26T09:56:42.276Z,42.45
2018-07-26T09:59:10.881Z,45.58
2018-07-26T10:01:40.935Z,46.23
2018-07-26T10:04:09.628Z,42.60
2018-07-26T10:06:38.393Z,41.99
2018-07-26T10:09:11.326Z,40.80
2018-07-26T10:11:40.047Z,43.55
2018-07-26T10:14:08.750Z,44.67
2018-07-26T10:16:37.742Z,45.97
2018-07-26T10:19:06.516Z,46.39
2018-07-26T10:21:35.147Z,49.00
2018-07-26T10:24:03.806Z,47.46
2018-07-26T10:26:32.458Z,46.24
2018-07-26T10:29:01.627Z,42.58
2018-07-26T10:31:30.315Z,40.69
2018-07-26T10:33:59.041Z,36.95
2018-07-26T10:36:27.768Z,38.99
2018-07-26T10:38:56.400Z,37.71
2018-07-26T10:41:25.327Z,37.35
2018-07-26T10:43:54.075Z,35.35
2018-07-26T10:46:23.624Z,36.15
2018-07-26T10:48:52.755Z,35.13
2018-07-26T10:51:21.647Z,36.90
2018-07-26T10:53:50.672Z,37.34
2018-07-26T10:56:19.615Z,36.92
2018-07-26T10:58:48.273Z,38.08
2018-07-26T11:01:17.179Z,38.08
2018-07-26T11:03:45.828Z,38.21
2018-07-26T11:06:14.510Z,39.27
2018-07-26T11:08:43.665Z,38.51
2018-07-26T11:11:12.739Z,38.80
2018-07-26T11:13:41.668Z,39.13
2018-07-26T11:16:10.402Z,41.04
2018-07-26T11:18:39.329Z,42.88
2018-07-26T11:21:08.852Z,44.16
2018-07-26T11:23:37.540Z,45.92
2018-07-26T11:26:06.664Z,45.90
2018-07-26T11:28:35.322Z,48.56
2018-07-26T11:31:04.045Z,49.17
2018-07-26T11:33:33.020Z,49.74
2018-07-26T11:36:02.286Z,46.75
2018-07-26T11:38:31.456Z,43.64
2018-07-26T11:41:00.045Z,42.19
2018-07-26T11:43:28.966Z,44.31
2018-07-26T11:45:57.657Z,40.26
2018-07-26T11:48:26.327Z,40.01
2018-07-26T11:50:55.358Z,42.06
2018-07-26T11:53:24.027Z,43.11
2018-07-26T11:55:52.947Z,48.09
2018-07-26T11:58:21.691Z,49.83
2018-07-26T12:00:50.366Z,51.71
2018-07-26T12:03:19.001Z,52.57
2018-07-26T12:05:47.589Z,52.60
2018-07-26T12:08:16.544Z,54.55
2018-07-26T12:10:45.135Z,55.66
2018-07-26T12:13:13.770Z,55.27
2018-07-26T12:15:42.358Z,55.56
2018-07-26T12:18:11.086Z,54.32
2018-07-26T12:20:39.762Z,54.03
2018-07-26T12:23:08.557Z,53.50
2018-07-26T12:25:37.452Z,52.67
2018-07-26T12:28:06.116Z,51.86
2018-07-26T12:30:34.757Z,50.61
2018-07-26T12:33:03.662Z,49.67
2018-07-26T12:35:32.359Z,49.11
2018-07-26T12:38:00.999Z,49.85
2018-07-26T12:40:29.599Z,51.04
2018-07-26T12:42:58.201Z,51.13
2018-07-26T12:45:26.870Z,51.16
2018-07-26T12:47:55.862Z,49.91
2018-07-26T12:50:24.454Z,51.50
2018-07-26T12:52:53.126Z,52.77
2018-07-26T12:55:21.772Z,51.66
2018-07-26T12:57:50.426Z,51.36
2018-07-26T13:00:19.084Z,50.64
2018-07-26T13:02:47.925Z,49.39
2018-07-26T13:05:16.615Z,48.44
2018-07-26T13:07:45.251Z,48.34
2018-07-26T13:10:14.001Z,48.24
2018-07-26T13:12:42.647Z,48.68
2018-07-26T13:15:11.352Z,48.87
2018-07-26T13:17:40.304Z,48.16
2018-07-26T13:20:09.431Z,50.11
2018-07-26T13:22:38.122Z,49.95
2018-07-26T13:25:07.013Z,51.36
2018-07-26T13:27:35.713Z,48.25
2018-07-26T13:30:06.143Z,50.05
2018-07-26T13:32:34.789Z,51.25
2018-07-26T13:35:03.435Z,49.87
2018-07-26T13:37:32.115Z,48.63
2018-07-26T13:40:00.844Z,48.42
2018-07-26T13:42:29.507Z,49.94
2018-07-26T13:44:58.151Z,51.32
2018-07-26T13:47:27.231Z,52.13
2018-07-26T13:49:56.306Z,50.18
2018-07-26T13:52:26.123Z,51.03
2018-07-26T13:54:55.367Z,51.37
2018-07-26T13:57:24.260Z,51.41
2018-07-26T13:59:53.321Z,52.63
2018-07-26T14:02:22.951Z,53.44
2018-07-26T14:04:51.754Z,53.73
2018-07-26T14:07:22.556Z,54.70
2018-07-26T14:09:51.396Z,54.66
2018-07-26T14:12:20.078Z,54.88
2018-07-26T14:14:48.686Z,56.57
2018-07-26T14:17:17.307Z,56.67
2018-07-26T14:19:45.954Z,57.04
2018-07-26T14:22:14.584Z,55.26
2018-07-26T14:24:43.300Z,54.27
2018-07-26T14:27:11.985Z,54.27
2018-07-26T14:29:40.958Z,54.88
2018-07-26T14:32:09.644Z,56.24
2018-07-26T14:34:38.588Z,55.78
2018-07-26T14:37:07.234Z,56.19
2018-07-26T14:39:36.180Z,56.29
2018-07-26T14:42:04.899Z,56.23
2018-07-26T14:44:33.605Z,54.85
2018-07-26T14:47:02.243Z,55.81
2018-07-26T14:49:30.902Z,55.47
2018-07-26T14:51:59.583Z,55.12
2018-07-26T14:54:28.241Z,55.82
2018-07-26T14:56:56.906Z,55.37
2018-07-26T14:59:25.562Z,55.16
2018-07-26T15:01:54.730Z,56.57
2018-07-26T15:04:23.620Z,56.69
2018-07-26T15:06:52.339Z,56.07
2018-07-26T15:09:21.326Z,55.87
2018-07-26T15:11:49.984Z,56.09
2018-07-26T15:14:19.000Z,55.97
2018-07-26T15:16:47.979Z,55.80
2018-07-26T15:19:16.903Z,55.63
2018-07-26T15:21:45.538Z,55.75
2018-07-26T15:24:14.204Z,55.67
2018-07-26T15:26:42.843Z,54.50
2018-07-26T15:29:11.497Z,55.09
2018-07-26T15:31:40.162Z,56.19
2018-07-26T15:34:08.863Z,57.74
2018-07-26T15:36:37.535Z,58.97
2018-07-26T15:39:08.307Z,60.20
2018-07-26T15:41:37.086Z,60.21
2018-07-26T15:44:05.847Z,61.57
2018-07-26T15:46:34.510Z,62.92
2018-07-26T15:49:03.123Z,63.53
2018-07-26T15:51:32.582Z,63.50
2018-07-26T15:54:01.230Z,62.88
2018-07-26T15:56:29.895Z,62.10
2018-07-26T15:58:58.645Z,61.30
2018-07-26T16:01:27.273Z,58.67
2018-07-26T16:03:55.940Z,57.95
2018-07-26T16:06:24.788Z,57.17
2018-07-26T16:08:53.476Z,57.47
2018-07-26T16:11:22.153Z,57.84
2018-07-26T16:13:51.031Z,58.07
2018-07-26T16:16:19.706Z,58.83
2018-07-26T16:18:48.335Z,59.47
2018-07-26T16:21:17.055Z,59.24
2018-07-26T16:23:45.758Z,59.47
2018-07-26T16:26:14.441Z,60.60
2018-07-26T16:28:43.142Z,59.96
2018-07-26T16:31:12.069Z,60.55
2018-07-26T16:33:40.723Z,60.42
2018-07-26T16:36:09.391Z,60.46
2018-07-26T16:38:38.051Z,60.42
2018-07-26T16:41:06.776Z,60.44
2018-07-26T16:43:35.488Z,60.88
2018-07-26T16:46:04.185Z,60.57
2018-07-26T16:48:32.848Z,61.21
2018-07-26T16:51:01.506Z,61.42
2018-07-26T16:53:30.172Z,61.43
2018-07-26T16:55:58.821Z,62.23
2018-07-26T16:58:27.509Z,62.66
2018-07-26T17:00:56.398Z,63.26
2018-07-26T17:03:25.075Z,64.15
2018-07-26T17:05:53.676Z,64.72
2018-07-26T17:08:22.310Z,64.99
2018-07-26T17:10:50.970Z,64.78
2018-07-26T17:13:19.652Z,66.12
2018-07-26T17:15:48.571Z,66.69
2018-07-26T17:18:17.668Z,66.97
2018-07-26T17:20:46.363Z,67.05
2018-07-26T17:23:15.055Z,67.39
2018-07-26T17:25:43.991Z,67.63
2018-07-26T17:28:12.902Z,68.01
2018-07-26T17:30:41.686Z,68.75
2018-07-26T17:33:10.728Z,69.67
2018-07-26T17:35:39.542Z,71.29
2018-07-26T17:38:08.377Z,73.46
2018-07-26T17:40:37.382Z,73.92
2018-07-26T17:43:06.243Z,76.86
2018-07-26T17:45:35.167Z,79.38
2018-07-26T17:48:04.162Z,79.24
2018-07-26T17:50:32.934Z,81.66
2018-07-26T17:53:01.806Z,82.86
2018-07-26T17:55:30.733Z,83.24
2018-07-26T17:57:59.622Z,84.54
2018-07-26T18:00:28.367Z,84.99
2018-07-26T18:02:57.331Z,85.51
2018-07-26T18:05:25.974Z,85.72
2018-07-26T18:07:54.834Z,84.13
2018-07-26T18:10:23.762Z,84.41
2018-07-26T18:12:52.488Z,84.02
2018-07-26T18:15:21.589Z,85.51
2018-07-26T18:17:50.219Z,85.66
2018-07-26T18:20:19.210Z,85.44
2018-07-26T18:22:48.208Z,86.44
2018-07-26T18:25:16.837Z,85.47
2018-07-26T18:27:45.493Z,85.74
2018-07-26T18:30:15.381Z,88.11
2018-07-26T18:32:44.308Z,89.69
2018-07-26T18:35:12.934Z,89.61
2018-07-26T18:37:41.634Z,89.25
2018-07-26T18:40:11.277Z,90.32
2018-07-26T18:42:40.269Z,89.85
2018-07-26T18:45:10.019Z,90.71
2018-07-26T18:47:39.411Z,91.36
2018-07-26T18:50:09.300Z,91.56
2018-07-26T18:52:38.280Z,88.33
2018-07-26T18:55:08.379Z,85.34
2018-07-26T18:57:37.046Z,83.96
2018-07-26T19:00:08.209Z,85.26
2018-07-26T19:02:36.809Z,86.10
2018-07-26T19:05:06.149Z,87.15
2018-07-26T19:07:35.271Z,87.04
2018-07-26T19:10:04.344Z,88.34
2018-07-26T19:12:33.901Z,87.46
2018-07-26T19:15:03.909Z,87.85
2018-07-26T19:17:32.802Z,86.94
2018-07-26T19:20:02.027Z,86.10
2018-07-26T19:22:31.885Z,84.33
2018-07-26T19:25:01.593Z,84.44
2018-07-26T19:27:30.487Z,85.46
2018-07-26T19:29:59.230Z,85.60
2018-07-26T19:32:28.037Z,85.10
2018-07-26T19:34:58.287Z,85.00
2018-07-26T19:37:27.817Z,85.67
2018-07-26T19:39:56.643Z,87.32
2018-07-26T19:42:25.334Z,86.47
2018-07-26T19:44:53.929Z,87.25
2018-07-26T19:47:22.618Z,87.63
2018-07-26T19:49:51.242Z,86.65
2018-07-26T19:52:20.025Z,87.16
2018-07-26T19:54:48.662Z,86.88
2018-07-26T19:57:17.608Z,86.97
2018-07-26T19:59:46.554Z,87.35
2018-07-26T20:02:15.176Z,87.49
2018-07-26T20:04:43.792Z,87.85
2018-07-26T20:07:12.432Z,87.82
2018-07-26T20:09:41.120Z,87.42
2018-07-26T20:12:09.861Z,87.21
2018-07-26T20:14:39.210Z,87.50
2018-07-26T20:17:07.956Z,87.06
2018-07-26T20:19:36.584Z,87.47
2018-07-26T20:22:05.262Z,86.90
2018-07-26T20:24:33.901Z,87.13
2018-07-26T20:27:02.573Z,87.45
2018-07-26T20:29:31.238Z,88.07
2018-07-26T20:32:00.274Z,87.53
2018-07-26T20:34:29.065Z,87.50
2018-07-26T20:36:58.353Z,86.92
2018-07-26T20:39:27.069Z,86.84
2018-07-26T20:41:55.781Z,87.23
2018-07-26T20:44:24.392Z,86.33
2018-07-26T20:46:53.030Z,85.16
2018-07-26T20:49:21.886Z,84.55
2018-07-26T20:51:50.565Z,84.83
2018-07-26T20:54:19.212Z,84.06
2018-07-26T20:56:48.806Z,84.10
2018-07-26T20:59:17.462Z,83.39
2018-07-26T21:01:46.165Z,83.08
2018-07-26T21:04:14.763Z,83.71
2018-07-26T21:06:43.463Z,83.26
2018-07-26T21:09:14.020Z,84.24
2018-07-26T21:11:43.166Z,84.08
2018-07-26T21:14:11.789Z,84.05
2018-07-26T21:16:40.418Z,82.99
2018-07-26T21:19:09.565Z,83.11
2018-07-26T21:21:38.239Z,82.82
2018-07-26T21:24:06.899Z,82.86
2018-07-26T21:26:35.534Z,83.69
2018-07-26T21:29:04.179Z,82.88
2018-07-26T21:31:32.913Z,83.33
2018-07-26T21:34:01.822Z,83.86
2018-07-26T21:36:31.026Z,85.11
2018-07-26T21:38:59.689Z,86.03
2018-07-26T21:41:28.590Z,86.42
2018-07-26T21:43:57.286Z,86.13
2018-07-26T21:46:26.243Z,85.43
2018-07-26T21:48:54.851Z,85.67
2018-07-26T21:51:23.477Z,85.73
2018-07-26T21:53:52.164Z,85.72
2018-07-26T21:56:20.798Z,85.98
2018-07-26T21:58:49.423Z,86.19
2018-07-26T22:01:18.176Z,86.32
2018-07-26T22:03:46.898Z,86.87
2018-07-26T22:06:15.564Z,86.20
2018-07-26T22:08:45.025Z,86.88
2018-07-26T22:11:13.709Z,86.46
2018-07-26T22:13:42.358Z,84.92
2018-07-26T22:16:11.030Z,86.00
2018-07-26T22:18:39.694Z,85.92
2018-07-26T22:21:08.385Z,85.61
2018-07-26T22:23:37.054Z,86.26
2018-07-26T22:26:05.769Z,86.51
2018-07-26T22:28:34.407Z,87.16
2018-07-26T22:31:03.111Z,86.92
2018-07-26T22:33:31.738Z,86.45
2018-07-26T22:36:00.454Z,87.33
2018-07-26T22:38:29.139Z,86.67
2018-07-26T22:40:57.881Z,87.41
2018-07-26T22:43:26.566Z,87.05
2018-07-26T22:45:55.287Z,86.39
2018-07-26T22:48:24.019Z,87.29
2018-07-26T22:50:52.994Z,86.50
2018-07-26T22:53:21.678Z,87.50
2018-07-26T22:55:50.439Z,87.07
2018-07-26T22:58:19.455Z,88.00
2018-07-26T23:00:48.218Z,86.94
2018-07-26T23:03:16.915Z,87.67
2018-07-26T23:05:45.584Z,87.80
2018-07-26T23:08:14.367Z,86.88
2018-07-26T23:10:43.054Z,86.61
2018-07-26T23:13:11.741Z,87.42
2018-07-26T23:15:40.459Z,87.70
2018-07-26T23:18:09.109Z,88.26
2018-07-26T23:20:37.759Z,88.19
2018-07-26T23:23:06.418Z,89.47
2018-07-26T23:25:35.094Z,89.76
2018-07-26T23:28:03.810Z,90.68
2018-07-26T23:30:32.461Z,91.63
2018-07-26T23:33:02.062Z,91.33
2018-07-26T23:35:30.726Z,91.03
2018-07-26T23:37:59.442Z,91.40
2018-07-26T23:40:28.097Z,90.89
2018-07-26T23:42:56.745Z,90.51
2018-07-26T23:45:25.622Z,91.31
2018-07-26T23:47:54.284Z,92.54
2018-07-26T23:50:23.184Z,93.73
2018-07-26T23:52:51.952Z,94.33
2018-07-26T23:55:20.630Z,94.50
2018-07-26T23:57:49.291Z,93.87
